Liberty Promise — WWMZ — position and weather

sailwx.info

Track history (hours):
 
Tides and Currents Weather Stations Pressure Air Temp Water Temp Dewpoint Dewpoint Depression Visibility Wind Speed Wind Dir Waves Ship Positions

Liberty Promise

Owner: LIBERTY PROMISE CORPORATION, LAKE SUCCESS, NY. More information available from US FCC via Universal Licensing System and Coast Guard Vessel Documentation Center.

Last reported at 2016-Sep-26 20:33 UTC. Time now 2016-Sep-26 20:47 UTC.
Position N 50°51' E 001°25'.

Length 200 m; draft 8.1 m.

Type: Cargo ship. MMSI: 366102000.

Date/timePositionNaut miles runAvg speedWind from/ knotsBaromVisibWave heightAir tempDewpointWater temp
2016-Sep-26 20:33N 50°51' E 001°25'8416.9
2016-Sep-26 15:33N 50°08' W 000°29'9613.0
2016-Sep-26 08:09N 49°47' W 002°55'8214.6
2016-Sep-26 02:33N 49°06' W 004°45'1515.0
2016-Sep-26 01:33N 48°58' W 005°04'1515.2
2016-Sep-26 00:34N 48°51' W 005°24'58514.9
2016-Sep-24 09:25N 39°38' W 009°50'9315.9
2016-Sep-24 03:33N 38°05' W 009°38'1616.0
2016-Sep-24 02:33N 37°49' W 009°34'1615.9
2016-Sep-24 01:33N 37°34' W 009°30'1616.3
2016-Sep-24 00:33N 37°18' W 009°24'7314.4
2016-Sep-23 19:30N 36°30' W 008°15'24615.4
2016-Sep-23 03:29N 36°18' W 003°10'1515.9
2016-Sep-23 02:33N 36°20' W 002°52'1615.8
2016-Sep-23 01:33N 36°23' W 002°33'1515.3
2016-Sep-23 00:34N 36°24' W 002°14'6315.7
2016-Sep-22 20:33N 36°34' W 000°57'13016.3
2016-Sep-22 12:33N 36°54' E 001°44'55616.3
2016-Sep-21 02:33N 36°36' E 013°17'60716.2
2016-Sep-19 13:10N 33°36' E 025°06'5715.8
2016-Sep-19 09:33N 33°20' E 026°12'10116.8
2016-Sep-19 03:30N 32°51' E 028°08'1717.0
2016-Sep-19 02:32N 32°46' E 028°27'3517.1
2016-Sep-19 00:27N 32°36' E 029°08'8416.9
2016-Sep-18 19:28N 32°12' E 030°43'6616.8
2016-Sep-18 15:33N 31°48' E 031°55'1717.0
2016-Sep-18 14:33N 31°36' E 032°09'4310.8
2016-Sep-18 10:33N 30°53' E 032°19'  
Track history (hours):
 
Tides and Currents Weather Stations Pressure Air Temp Water Temp Dewpoint Dewpoint Depression Visibility Wind Speed Wind Dir Waves Ship Positions

Liberty Promise

Owner: LIBERTY PROMISE CORPORATION, LAKE SUCCESS, NY. More information available from US FCC via Universal Licensing System and Coast Guard Vessel Documentation Center.

Last reported at 2016-Sep-26 20:33 UTC. Time now 2016-Sep-26 20:47 UTC.
Position N 50°51' E 001°25'.

Length 200 m; draft 8.1 m.

Type: Cargo ship. MMSI: 366102000.

Date/timePositionNaut miles runAvg speedWind from/ knotsBaromVisibWave heightAir tempDewpointWater temp
2016-Sep-26 20:33N 50°51' E 001°25'8416.9
2016-Sep-26 15:33N 50°08' W 000°29'9613.0
2016-Sep-26 08:09N 49°47' W 002°55'8214.6
2016-Sep-26 02:33N 49°06' W 004°45'1515.0
2016-Sep-26 01:33N 48°58' W 005°04'1515.2
2016-Sep-26 00:34N 48°51' W 005°24'58514.9
2016-Sep-24 09:25N 39°38' W 009°50'9315.9
2016-Sep-24 03:33N 38°05' W 009°38'1616.0
2016-Sep-24 02:33N 37°49' W 009°34'1615.9
2016-Sep-24 01:33N 37°34' W 009°30'1616.3
2016-Sep-24 00:33N 37°18' W 009°24'7314.4
2016-Sep-23 19:30N 36°30' W 008°15'24615.4
2016-Sep-23 03:29N 36°18' W 003°10'1515.9
2016-Sep-23 02:33N 36°20' W 002°52'1615.8
2016-Sep-23 01:33N 36°23' W 002°33'1515.3
2016-Sep-23 00:34N 36°24' W 002°14'6315.7
2016-Sep-22 20:33N 36°34' W 000°57'13016.3
2016-Sep-22 12:33N 36°54' E 001°44'55616.3
2016-Sep-21 02:33N 36°36' E 013°17'60716.2
2016-Sep-19 13:10N 33°36' E 025°06'5715.8
2016-Sep-19 09:33N 33°20' E 026°12'10116.8
2016-Sep-19 03:30N 32°51' E 028°08'1717.0
2016-Sep-19 02:32N 32°46' E 028°27'3517.1
2016-Sep-19 00:27N 32°36' E 029°08'8416.9
2016-Sep-18 19:28N 32°12' E 030°43'6616.8
2016-Sep-18 15:33N 31°48' E 031°55'1717.0
2016-Sep-18 14:33N 31°36' E 032°09'4310.8
2016-Sep-18 10:33N 30°53' E 032°19'  

Dump ship's entire track history